sensor_id;sensor_type;location;lat;lon;timestamp;temperature;humidity
8338;DHT22;4206;48.634;9.516;2023-06-22T00:01:19;21.20;99.90
8338;DHT22;4206;48.634;9.516;2023-06-22T00:03:47;21.10;99.90
8338;DHT22;4206;48.634;9.516;2023-06-22T00:06:14;21.10;99.90
8338;DHT22;4206;48.634;9.516;2023-06-22T00:08:41;21.00;99.90
8338;DHT22;4206;48.634;9.516;2023-06-22T00:11:08;20.90;99.90
8338;DHT22;4206;48.634;9.516;2023-06-22T00:13:34;21.30;99.90
8338;DHT22;4206;48.634;9.516;2023-06-22T00:16:02;20.90;99.90
8338;DHT22;4206;48.634;9.516;2023-06-22T00:18:29;20.80;99.90
8338;DHT22;4206;48.634;9.516;2023-06-22T00:20:57;20.70;99.90
8338;DHT22;4206;48.634;9.516;2023-06-22T00:23:25;20.60;99.90
8338;DHT22;4206;48.634;9.516;2023-06-22T00:25:52;20.50;99.90
8338;DHT22;4206;48.634;9.516;2023-06-22T00:28:19;20.50;99.90
8338;DHT22;4206;48.634;9.516;2023-06-22T00:30:48;20.40;99.90
8338;DHT22;4206;48.634;9.516;2023-06-22T00:33:15;20.40;99.90
8338;DHT22;4206;48.634;9.516;2023-06-22T00:35:43;20.40;99.90
8338;DHT22;4206;48.634;9.516;2023-06-22T00:38:11;20.40;99.90
8338;DHT22;4206;48.634;9.516;2023-06-22T00:40:38;20.40;99.90
8338;DHT22;4206;48.634;9.516;2023-06-22T00:43:05;20.30;99.90
8338;DHT22;4206;48.634;9.516;2023-06-22T00:45:33;20.30;99.90
8338;DHT22;4206;48.634;9.516;2023-06-22T00:47:59;20.30;99.90
8338;DHT22;4206;48.634;9.516;2023-06-22T00:50:30;20.40;99.90
8338;DHT22;4206;48.634;9.516;2023-06-22T00:53:04;20.40;99.90
8338;DHT22;4206;48.634;9.516;2023-06-22T00:55:38;20.30;99.90
8338;DHT22;4206;48.634;9.516;2023-06-22T00:58:06;20.30;99.90
8338;DHT22;4206;48.634;9.516;2023-06-22T01:00:38;20.30;99.90
8338;DHT22;4206;48.634;9.516;2023-06-22T01:03:05;20.30;99.90
8338;DHT22;4206;48.634;9.516;2023-06-22T01:05:37;20.30;99.90
8338;DHT22;4206;48.634;9.516;2023-06-22T01:13:16;20.30;99.90
8338;DHT22;4206;48.634;9.516;2023-06-22T01:15:49;20.30;99.90
8338;DHT22;4206;48.634;9.516;2023-06-22T01:18:18;20.20;99.90
8338;DHT22;4206;48.634;9.516;2023-06-22T01:20:46;20.30;99.90
8338;DHT22;4206;48.634;9.516;2023-06-22T01:25:59;20.30;99.90
8338;DHT22;4206;48.634;9.516;2023-06-22T01:31:14;20.10;99.90
8338;DHT22;4206;48.634;9.516;2023-06-22T01:33:45;20.10;99.90
8338;DHT22;4206;48.634;9.516;2023-06-22T01:36:13;19.90;99.90
8338;DHT22;4206;48.634;9.516;2023-06-22T01:38:42;19.70;99.90
8338;DHT22;4206;48.634;9.516;2023-06-22T01:41:10;19.90;99.90
8338;DHT22;4206;48.634;9.516;2023-06-22T01:43:38;19.70;99.90
8338;DHT22;4206;48.634;9.516;2023-06-22T01:46:05;19.80;99.90
8338;DHT22;4206;48.634;9.516;2023-06-22T01:48:32;19.50;99.90
8338;DHT22;4206;48.634;9.516;2023-06-22T01:50:59;19.60;99.90
8338;DHT22;4206;48.634;9.516;2023-06-22T01:53:26;19.50;99.90
8338;DHT22;4206;48.634;9.516;2023-06-22T01:55:53;19.40;99.90
8338;DHT22;4206;48.634;9.516;2023-06-22T01:58:21;19.40;99.90
8338;DHT22;4206;48.634;9.516;2023-06-22T02:00:55;19.30;99.90
8338;DHT22;4206;48.634;9.516;2023-06-22T02:03:30;19.40;99.90
8338;DHT22;4206;48.634;9.516;2023-06-22T02:06:03;19.40;99.90
8338;DHT22;4206;48.634;9.516;2023-06-22T02:08:37;19.30;99.90
8338;DHT22;4206;48.634;9.516;2023-06-22T02:11:05;19.30;99.90
8338;DHT22;4206;48.634;9.516;2023-06-22T02:13:33;19.30;99.90
8338;DHT22;4206;48.634;9.516;2023-06-22T02:16:01;19.30;99.90
8338;DHT22;4206;48.634;9.516;2023-06-22T02:18:28;19.30;99.90
8338;DHT22;4206;48.634;9.516;2023-06-22T02:20:55;19.20;99.90
8338;DHT22;4206;48.634;9.516;2023-06-22T02:23:21;19.30;99.90
8338;DHT22;4206;48.634;9.516;2023-06-22T02:25:48;19.30;99.90
8338;DHT22;4206;48.634;9.516;2023-06-22T02:28:16;19.40;99.90
8338;DHT22;4206;48.634;9.516;2023-06-22T02:30:42;19.20;99.90
8338;DHT22;4206;48.634;9.516;2023-06-22T02:33:10;19.20;99.90
8338;DHT22;4206;48.634;9.516;2023-06-22T02:35:37;19.20;99.90
8338;DHT22;4206;48.634;9.516;2023-06-22T02:38:04;19.10;99.90
8338;DHT22;4206;48.634;9.516;2023-06-22T02:40:31;19.50;99.90
8338;DHT22;4206;48.634;9.516;2023-06-22T02:42:58;19.10;99.90
8338;DHT22;4206;48.634;9.516;2023-06-22T02:45:29;19.00;99.90
8338;DHT22;4206;48.634;9.516;2023-06-22T02:47:56;19.00;99.90
8338;DHT22;4206;48.634;9.516;2023-06-22T02:50:23;18.90;99.90
8338;DHT22;4206;48.634;9.516;2023-06-22T02:52:50;18.80;99.90
8338;DHT22;4206;48.634;9.516;2023-06-22T02:55:17;18.90;99.90
8338;DHT22;4206;48.634;9.516;2023-06-22T02:57:44;18.90;99.90
8338;DHT22;4206;48.634;9.516;2023-06-22T03:00:14;18.80;99.90
8338;DHT22;4206;48.634;9.516;2023-06-22T03:02:46;18.80;99.90
8338;DHT22;4206;48.634;9.516;2023-06-22T03:05:15;18.80;99.90
8338;DHT22;4206;48.634;9.516;2023-06-22T03:07:45;18.80;99.90
8338;DHT22;4206;48.634;9.516;2023-06-22T03:10:13;18.70;99.90
8338;DHT22;4206;48.634;9.516;2023-06-22T03:12:41;18.70;99.90
8338;DHT22;4206;48.634;9.516;2023-06-22T03:15:10;18.70;99.90
8338;DHT22;4206;48.634;9.516;2023-06-22T03:17:38;18.70;99.90
8338;DHT22;4206;48.634;9.516;2023-06-22T03:20:06;18.50;99.90
8338;DHT22;4206;48.634;9.516;2023-06-22T03:22:36;18.50;99.90
8338;DHT22;4206;48.634;9.516;2023-06-22T03:25:04;18.60;99.90
8338;DHT22;4206;48.634;9.516;2023-06-22T03:27:31;18.70;99.90
8338;DHT22;4206;48.634;9.516;2023-06-22T03:29:58;18.60;99.90
8338;DHT22;4206;48.634;9.516;2023-06-22T03:32:25;18.60;99.90
8338;DHT22;4206;48.634;9.516;2023-06-22T03:34:54;18.50;99.90
8338;DHT22;4206;48.634;9.516;2023-06-22T03:37:26;18.50;99.90
8338;DHT22;4206;48.634;9.516;2023-06-22T03:39:53;18.50;99.90
8338;DHT22;4206;48.634;9.516;2023-06-22T03:42:20;18.40;99.90
8338;DHT22;4206;48.634;9.516;2023-06-22T03:44:49;18.50;99.90
8338;DHT22;4206;48.634;9.516;2023-06-22T03:47:16;18.50;99.90
8338;DHT22;4206;48.634;9.516;2023-06-22T03:49:43;18.50;99.90
8338;DHT22;4206;48.634;9.516;2023-06-22T03:52:09;18.50;99.90
8338;DHT22;4206;48.634;9.516;2023-06-22T03:54:37;18.40;99.90
8338;DHT22;4206;48.634;9.516;2023-06-22T03:57:04;18.50;99.90
8338;DHT22;4206;48.634;9.516;2023-06-22T03:59:32;18.60;99.90
8338;DHT22;4206;48.634;9.516;2023-06-22T04:01:59;18.60;99.90
8338;DHT22;4206;48.634;9.516;2023-06-22T04:04:26;18.60;99.90
8338;DHT22;4206;48.634;9.516;2023-06-22T04:06:53;18.60;99.90
8338;DHT22;4206;48.634;9.516;2023-06-22T04:09:20;18.70;99.90
8338;DHT22;4206;48.634;9.516;2023-06-22T04:11:48;18.70;99.90
8338;DHT22;4206;48.634;9.516;2023-06-22T04:14:15;18.80;99.90
8338;DHT22;4206;48.634;9.516;2023-06-22T04:16:42;18.80;99.90
8338;DHT22;4206;48.634;9.516;2023-06-22T04:19:09;18.90;99.90
8338;DHT22;4206;48.634;9.516;2023-06-22T04:21:43;19.00;99.90
8338;DHT22;4206;48.634;9.516;2023-06-22T04:24:11;19.00;99.90
8338;DHT22;4206;48.634;9.516;2023-06-22T04:26:38;19.10;99.90
8338;DHT22;4206;48.634;9.516;2023-06-22T04:29:08;19.20;99.90
8338;DHT22;4206;48.634;9.516;2023-06-22T04:31:36;19.30;99.90
8338;DHT22;4206;48.634;9.516;2023-06-22T04:34:04;19.30;99.90
8338;DHT22;4206;48.634;9.516;2023-06-22T04:36:37;19.30;99.90
8338;DHT22;4206;48.634;9.516;2023-06-22T04:39:06;19.50;99.90
8338;DHT22;4206;48.634;9.516;2023-06-22T04:41:33;19.50;99.90
8338;DHT22;4206;48.634;9.516;2023-06-22T04:44:09;19.70;99.90
8338;DHT22;4206;48.634;9.516;2023-06-22T04:46:37;19.80;99.90
8338;DHT22;4206;48.634;9.516;2023-06-22T04:49:07;19.90;99.90
8338;DHT22;4206;48.634;9.516;2023-06-22T04:51:39;20.10;99.90
8338;DHT22;4206;48.634;9.516;2023-06-22T04:54:08;20.20;99.90
8338;DHT22;4206;48.634;9.516;2023-06-22T04:56:35;20.30;99.90
8338;DHT22;4206;48.634;9.516;2023-06-22T04:59:02;20.40;99.90
8338;DHT22;4206;48.634;9.516;2023-06-22T05:01:30;20.50;99.90
8338;DHT22;4206;48.634;9.516;2023-06-22T05:03:58;20.60;99.90
8338;DHT22;4206;48.634;9.516;2023-06-22T05:06:28;20.80;99.90
8338;DHT22;4206;48.634;9.516;2023-06-22T05:08:56;20.90;99.90
8338;DHT22;4206;48.634;9.516;2023-06-22T05:11:25;21.00;99.90
8338;DHT22;4206;48.634;9.516;2023-06-22T05:13:52;21.10;99.90
8338;DHT22;4206;48.634;9.516;2023-06-22T05:16:20;21.30;99.90
8338;DHT22;4206;48.634;9.516;2023-06-22T05:18:52;21.30;99.90
8338;DHT22;4206;48.634;9.516;2023-06-22T05:21:25;21.50;99.90
8338;DHT22;4206;48.634;9.516;2023-06-22T05:23:53;21.60;99.90
8338;DHT22;4206;48.634;9.516;2023-06-22T05:26:21;21.80;99.90
8338;DHT22;4206;48.634;9.516;2023-06-22T05:28:48;22.00;99.90
8338;DHT22;4206;48.634;9.516;2023-06-22T05:31:15;22.00;99.90
8338;DHT22;4206;48.634;9.516;2023-06-22T05:33:43;22.20;99.90
8338;DHT22;4206;48.634;9.516;2023-06-22T05:36:10;22.40;99.90
8338;DHT22;4206;48.634;9.516;2023-06-22T05:38:37;22.50;99.90
8338;DHT22;4206;48.634;9.516;2023-06-22T05:41:05;22.70;99.90
8338;DHT22;4206;48.634;9.516;2023-06-22T05:43:32;22.80;99.90
8338;DHT22;4206;48.634;9.516;2023-06-22T05:46:00;23.00;99.90
8338;DHT22;4206;48.634;9.516;2023-06-22T05:48:27;23.30;99.90
8338;DHT22;4206;48.634;9.516;2023-06-22T05:50:54;23.40;99.90
8338;DHT22;4206;48.634;9.516;2023-06-22T05:53:21;23.50;99.90
8338;DHT22;4206;48.634;9.516;2023-06-22T05:55:48;23.80;99.90
8338;DHT22;4206;48.634;9.516;2023-06-22T05:58:15;23.90;99.90
8338;DHT22;4206;48.634;9.516;2023-06-22T06:00:42;24.20;99.90
8338;DHT22;4206;48.634;9.516;2023-06-22T06:03:10;24.40;99.90
8338;DHT22;4206;48.634;9.516;2023-06-22T06:05:41;24.60;99.90
8338;DHT22;4206;48.634;9.516;2023-06-22T06:08:10;24.80;99.90
8338;DHT22;4206;48.634;9.516;2023-06-22T06:10:38;24.90;99.90
8338;DHT22;4206;48.634;9.516;2023-06-22T06:13:05;25.10;99.90
8338;DHT22;4206;48.634;9.516;2023-06-22T06:15:34;25.10;99.90
8338;DHT22;4206;48.634;9.516;2023-06-22T06:18:00;25.00;99.90
8338;DHT22;4206;48.634;9.516;2023-06-22T06:20:29;25.10;99.90
8338;DHT22;4206;48.634;9.516;2023-06-22T06:22:56;25.20;99.90
8338;DHT22;4206;48.634;9.516;2023-06-22T06:27:51;25.40;99.90
8338;DHT22;4206;48.634;9.516;2023-06-22T06:30:21;25.60;99.90
8338;DHT22;4206;48.634;9.516;2023-06-22T06:32:49;25.70;99.90
8338;DHT22;4206;48.634;9.516;2023-06-22T06:35:16;25.80;99.90
8338;DHT22;4206;48.634;9.516;2023-06-22T06:37:45;25.90;99.90
8338;DHT22;4206;48.634;9.516;2023-06-22T06:40:13;25.90;99.90
8338;DHT22;4206;48.634;9.516;2023-06-22T06:42:42;26.10;99.90
8338;DHT22;4206;48.634;9.516;2023-06-22T06:47:39;26.30;99.90
8338;DHT22;4206;48.634;9.516;2023-06-22T06:50:07;26.40;99.90
8338;DHT22;4206;48.634;9.516;2023-06-22T06:52:34;26.50;99.90
8338;DHT22;4206;48.634;9.516;2023-06-22T06:55:05;26.70;99.90
8338;DHT22;4206;48.634;9.516;2023-06-22T06:57:35;26.90;99.90
8338;DHT22;4206;48.634;9.516;2023-06-22T07:00:06;27.10;99.90
8338;DHT22;4206;48.634;9.516;2023-06-22T07:02:37;27.20;99.90
8338;DHT22;4206;48.634;9.516;2023-06-22T07:05:04;27.40;99.90
8338;DHT22;4206;48.634;9.516;2023-06-22T07:07:32;27.60;99.90
8338;DHT22;4206;48.634;9.516;2023-06-22T07:10:04;27.70;99.90
8338;DHT22;4206;48.634;9.516;2023-06-22T07:12:32;27.90;99.90
8338;DHT22;4206;48.634;9.516;2023-06-22T07:15:04;28.00;99.90
8338;DHT22;4206;48.634;9.516;2023-06-22T07:17:31;28.20;99.90
8338;DHT22;4206;48.634;9.516;2023-06-22T07:19:58;28.10;99.90
8338;DHT22;4206;48.634;9.516;2023-06-22T07:22:25;28.30;99.90
8338;DHT22;4206;48.634;9.516;2023-06-22T07:24:52;28.60;99.90
8338;DHT22;4206;48.634;9.516;2023-06-22T07:27:19;28.80;99.90
8338;DHT22;4206;48.634;9.516;2023-06-22T07:29:48;29.10;99.90
8338;DHT22;4206;48.634;9.516;2023-06-22T07:32:14;29.10;99.90
8338;DHT22;4206;48.634;9.516;2023-06-22T07:34:41;29.30;99.90
8338;DHT22;4206;48.634;9.516;2023-06-22T07:37:08;29.40;99.90
8338;DHT22;4206;48.634;9.516;2023-06-22T07:39:35;29.50;99.90
8338;DHT22;4206;48.634;9.516;2023-06-22T07:42:04;29.70;99.90
8338;DHT22;4206;48.634;9.516;2023-06-22T07:44:31;29.80;99.90
8338;DHT22;4206;48.634;9.516;2023-06-22T07:46:58;29.90;99.90
8338;DHT22;4206;48.634;9.516;2023-06-22T07:49:25;30.20;99.90
8338;DHT22;4206;48.634;9.516;2023-06-22T07:51:52;30.30;99.90
8338;DHT22;4206;48.634;9.516;2023-06-22T07:54:19;30.50;99.90
8338;DHT22;4206;48.634;9.516;2023-06-22T07:56:46;30.50;99.90
8338;DHT22;4206;48.634;9.516;2023-06-22T07:59:13;30.80;99.90
8338;DHT22;4206;48.634;9.516;2023-06-22T08:01:40;31.20;99.90
8338;DHT22;4206;48.634;9.516;2023-06-22T08:04:07;31.30;99.90
8338;DHT22;4206;48.634;9.516;2023-06-22T08:06:34;31.50;99.90
8338;DHT22;4206;48.634;9.516;2023-06-22T08:09:01;31.70;99.90
8338;DHT22;4206;48.634;9.516;2023-06-22T08:11:28;32.00;99.90
8338;DHT22;4206;48.634;9.516;2023-06-22T08:13:55;32.00;99.90
8338;DHT22;4206;48.634;9.516;2023-06-22T08:16:24;32.30;99.90
8338;DHT22;4206;48.634;9.516;2023-06-22T08:18:51;32.50;99.90
8338;DHT22;4206;48.634;9.516;2023-06-22T08:21:18;32.40;99.90
8338;DHT22;4206;48.634;9.516;2023-06-22T08:23:46;32.30;99.90
8338;DHT22;4206;48.634;9.516;2023-06-22T08:26:13;32.40;99.90
8338;DHT22;4206;48.634;9.516;2023-06-22T08:28:40;32.50;99.90
8338;DHT22;4206;48.634;9.516;2023-06-22T08:31:07;32.50;99.90
8338;DHT22;4206;48.634;9.516;2023-06-22T08:33:35;33.00;99.90
8338;DHT22;4206;48.634;9.516;2023-06-22T08:36:02;33.40;99.90
8338;DHT22;4206;48.634;9.516;2023-06-22T08:38:29;33.90;99.90
8338;DHT22;4206;48.634;9.516;2023-06-22T08:40:56;33.80;99.90
8338;DHT22;4206;48.634;9.516;2023-06-22T08:43:23;33.50;99.90
8338;DHT22;4206;48.634;9.516;2023-06-22T08:45:50;34.00;99.90
8338;DHT22;4206;48.634;9.516;2023-06-22T08:48:17;34.30;99.90
8338;DHT22;4206;48.634;9.516;2023-06-22T08:50:45;34.40;99.90
8338;DHT22;4206;48.634;9.516;2023-06-22T08:53:12;34.80;99.90
8338;DHT22;4206;48.634;9.516;2023-06-22T08:55:39;34.60;99.90
8338;DHT22;4206;48.634;9.516;2023-06-22T08:58:06;34.40;99.90
8338;DHT22;4206;48.634;9.516;2023-06-22T09:00:33;34.80;99.90
8338;DHT22;4206;48.634;9.516;2023-06-22T09:03:01;34.60;99.90
8338;DHT22;4206;48.634;9.516;2023-06-22T09:05:29;34.70;99.90
8338;DHT22;4206;48.634;9.516;2023-06-22T09:07:56;34.40;99.90
8338;DHT22;4206;48.634;9.516;2023-06-22T09:10:25;34.60;99.90
8338;DHT22;4206;48.634;9.516;2023-06-22T09:12:53;35.00;99.90
8338;DHT22;4206;48.634;9.516;2023-06-22T09:15:20;35.70;99.90
8338;DHT22;4206;48.634;9.516;2023-06-22T09:17:48;36.30;99.90
8338;DHT22;4206;48.634;9.516;2023-06-22T09:20:15;36.20;99.90
8338;DHT22;4206;48.634;9.516;2023-06-22T09:22:42;36.10;99.90
8338;DHT22;4206;48.634;9.516;2023-06-22T09:25:09;36.30;99.90
8338;DHT22;4206;48.634;9.516;2023-06-22T09:27:36;36.60;99.90
8338;DHT22;4206;48.634;9.516;2023-06-22T09:30:04;37.10;99.90
8338;DHT22;4206;48.634;9.516;2023-06-22T09:32:31;37.60;98.30
8338;DHT22;4206;48.634;9.516;2023-06-22T09:34:58;36.90;99.30
8338;DHT22;4206;48.634;9.516;2023-06-22T09:37:25;36.00;98.60
8338;DHT22;4206;48.634;9.516;2023-06-22T09:39:52;36.30;99.90
8338;DHT22;4206;48.634;9.516;2023-06-22T09:42:19;37.10;99.70
8338;DHT22;4206;48.634;9.516;2023-06-22T09:44:47;37.70;99.60
8338;DHT22;4206;48.634;9.516;2023-06-22T09:47:14;38.60;98.40
8338;DHT22;4206;48.634;9.516;2023-06-22T09:49:41;38.80;97.80
8338;DHT22;4206;48.634;9.516;2023-06-22T09:52:14;38.90;96.90
8338;DHT22;4206;48.634;9.516;2023-06-22T09:54:41;39.60;96.80
8338;DHT22;4206;48.634;9.516;2023-06-22T09:57:08;38.80;95.70
8338;DHT22;4206;48.634;9.516;2023-06-22T09:59:35;37.60;96.50
8338;DHT22;4206;48.634;9.516;2023-06-22T10:02:01;38.20;97.10
8338;DHT22;4206;48.634;9.516;2023-06-22T10:04:29;38.50;97.40
8338;DHT22;4206;48.634;9.516;2023-06-22T10:06:56;38.30;96.90
8338;DHT22;4206;48.634;9.516;2023-06-22T10:09:23;38.70;96.50
8338;DHT22;4206;48.634;9.516;2023-06-22T10:11:50;38.00;97.20
8338;DHT22;4206;48.634;9.516;2023-06-22T10:14:17;37.90;97.50
8338;DHT22;4206;48.634;9.516;2023-06-22T10:16:44;38.10;96.50
8338;DHT22;4206;48.634;9.516;2023-06-22T10:19:11;38.80;96.10
8338;DHT22;4206;48.634;9.516;2023-06-22T10:21:38;38.70;95.40
8338;DHT22;4206;48.634;9.516;2023-06-22T10:24:05;37.30;95.70
8338;DHT22;4206;48.634;9.516;2023-06-22T10:26:33;36.90;97.20
8338;DHT22;4206;48.634;9.516;2023-06-22T10:29:01;36.60;97.70
8338;DHT22;4206;48.634;9.516;2023-06-22T10:31:42;36.40;97.20
8338;DHT22;4206;48.634;9.516;2023-06-22T10:34:09;35.70;97.80
8338;DHT22;4206;48.634;9.516;2023-06-22T10:36:36;36.00;98.20
8338;DHT22;4206;48.634;9.516;2023-06-22T10:39:03;37.10;97.50
8338;DHT22;4206;48.634;9.516;2023-06-22T10:41:30;38.70;95.80
8338;DHT22;4206;48.634;9.516;2023-06-22T10:43:57;40.10;95.70
8338;DHT22;4206;48.634;9.516;2023-06-22T10:46:25;40.40;93.60
8338;DHT22;4206;48.634;9.516;2023-06-22T10:48:53;39.80;95.20
8338;DHT22;4206;48.634;9.516;2023-06-22T10:51:22;40.00;94.50
8338;DHT22;4206;48.634;9.516;2023-06-22T10:53:49;40.60;94.30
8338;DHT22;4206;48.634;9.516;2023-06-22T10:56:18;41.80;92.10
8338;DHT22;4206;48.634;9.516;2023-06-22T10:58:47;41.60;92.30
8338;DHT22;4206;48.634;9.516;2023-06-22T11:01:14;41.40;91.30
8338;DHT22;4206;48.634;9.516;2023-06-22T11:04:00;40.50;91.70
8338;DHT22;4206;48.634;9.516;2023-06-22T11:06:27;39.80;92.00
8338;DHT22;4206;48.634;9.516;2023-06-22T11:08:54;39.70;91.90
8338;DHT22;4206;48.634;9.516;2023-06-22T11:11:32;39.30;91.80
8338;DHT22;4206;48.634;9.516;2023-06-22T11:13:59;38.30;93.00
8338;DHT22;4206;48.634;9.516;2023-06-22T11:16:27;37.70;93.70
8338;DHT22;4206;48.634;9.516;2023-06-22T11:18:54;37.70;93.00
8338;DHT22;4206;48.634;9.516;2023-06-22T11:21:21;37.00;93.80
8338;DHT22;4206;48.634;9.516;2023-06-22T11:23:48;37.70;94.40
8338;DHT22;4206;48.634;9.516;2023-06-22T11:26:15;38.90;93.50
8338;DHT22;4206;48.634;9.516;2023-06-22T11:28:42;39.80;92.30
8338;DHT22;4206;48.634;9.516;2023-06-22T11:31:09;39.90;91.70
8338;DHT22;4206;48.634;9.516;2023-06-22T11:33:52;39.30;91.90
8338;DHT22;4206;48.634;9.516;2023-06-22T11:36:19;38.90;92.50
8338;DHT22;4206;48.634;9.516;2023-06-22T11:38:46;38.30;93.40
8338;DHT22;4206;48.634;9.516;2023-06-22T11:41:13;37.70;93.30
8338;DHT22;4206;48.634;9.516;2023-06-22T11:43:40;37.90;92.40
8338;DHT22;4206;48.634;9.516;2023-06-22T11:46:07;37.60;92.70
8338;DHT22;4206;48.634;9.516;2023-06-22T11:48:34;37.40;93.20
8338;DHT22;4206;48.634;9.516;2023-06-22T11:51:01;37.70;92.60
8338;DHT22;4206;48.634;9.516;2023-06-22T11:53:29;37.30;92.30
8338;DHT22;4206;48.634;9.516;2023-06-22T11:55:56;36.70;94.00
8338;DHT22;4206;48.634;9.516;2023-06-22T11:58:23;36.40;93.20
8338;DHT22;4206;48.634;9.516;2023-06-22T12:00:50;36.30;93.30
8338;DHT22;4206;48.634;9.516;2023-06-22T12:03:19;35.60;94.20
8338;DHT22;4206;48.634;9.516;2023-06-22T12:05:50;35.40;94.60
8338;DHT22;4206;48.634;9.516;2023-06-22T12:08:17;35.60;94.80
8338;DHT22;4206;48.634;9.516;2023-06-22T12:10:45;35.50;95.50
8338;DHT22;4206;48.634;9.516;2023-06-22T12:13:12;35.70;95.10
8338;DHT22;4206;48.634;9.516;2023-06-22T12:15:39;36.10;95.70
8338;DHT22;4206;48.634;9.516;2023-06-22T12:18:06;36.60;95.40
8338;DHT22;4206;48.634;9.516;2023-06-22T12:20:33;36.80;94.10
8338;DHT22;4206;48.634;9.516;2023-06-22T12:23:01;36.70;95.20
8338;DHT22;4206;48.634;9.516;2023-06-22T12:25:28;36.70;95.30
8338;DHT22;4206;48.634;9.516;2023-06-22T12:27:55;37.20;94.90
8338;DHT22;4206;48.634;9.516;2023-06-22T12:30:22;36.80;94.30
8338;DHT22;4206;48.634;9.516;2023-06-22T12:32:50;36.70;94.90
8338;DHT22;4206;48.634;9.516;2023-06-22T12:35:20;36.10;95.20
8338;DHT22;4206;48.634;9.516;2023-06-22T12:37:47;35.80;94.80
8338;DHT22;4206;48.634;9.516;2023-06-22T12:40:14;35.30;95.00
8338;DHT22;4206;48.634;9.516;2023-06-22T12:42:41;34.90;96.20
8338;DHT22;4206;48.634;9.516;2023-06-22T12:45:09;34.70;96.00
8338;DHT22;4206;48.634;9.516;2023-06-22T12:47:36;34.40;96.20
8338;DHT22;4206;48.634;9.516;2023-06-22T12:50:03;34.20;96.30
8338;DHT22;4206;48.634;9.516;2023-06-22T12:52:31;34.00;97.00
8338;DHT22;4206;48.634;9.516;2023-06-22T12:54:59;33.70;97.30
8338;DHT22;4206;48.634;9.516;2023-06-22T12:57:25;33.50;97.50
8338;DHT22;4206;48.634;9.516;2023-06-22T12:59:52;33.40;98.50
8338;DHT22;4206;48.634;9.516;2023-06-22T13:02:19;33.10;99.50
8338;DHT22;4206;48.634;9.516;2023-06-22T13:04:46;32.70;99.90
8338;DHT22;4206;48.634;9.516;2023-06-22T13:07:13;32.80;99.90
8338;DHT22;4206;48.634;9.516;2023-06-22T13:09:49;32.40;99.90
8338;DHT22;4206;48.634;9.516;2023-06-22T13:12:20;32.50;99.90
8338;DHT22;4206;48.634;9.516;2023-06-22T13:14:50;32.70;99.90
8338;DHT22;4206;48.634;9.516;2023-06-22T13:17:17;32.70;99.90
8338;DHT22;4206;48.634;9.516;2023-06-22T13:19:43;32.70;99.90
8338;DHT22;4206;48.634;9.516;2023-06-22T13:22:30;32.70;99.90
8338;DHT22;4206;48.634;9.516;2023-06-22T13:24:58;32.70;99.90
8338;DHT22;4206;48.634;9.516;2023-06-22T13:27:25;32.80;99.90
8338;DHT22;4206;48.634;9.516;2023-06-22T13:29:52;33.00;99.90
8338;DHT22;4206;48.634;9.516;2023-06-22T13:32:19;33.50;99.90
8338;DHT22;4206;48.634;9.516;2023-06-22T13:34:47;33.80;99.90
8338;DHT22;4206;48.634;9.516;2023-06-22T13:37:14;34.40;99.30
8338;DHT22;4206;48.634;9.516;2023-06-22T13:39:41;35.10;97.00
8338;DHT22;4206;48.634;9.516;2023-06-22T13:42:08;35.40;96.70
8338;DHT22;4206;48.634;9.516;2023-06-22T13:44:35;35.40;97.10
8338;DHT22;4206;48.634;9.516;2023-06-22T13:47:02;35.30;97.30
8338;DHT22;4206;48.634;9.516;2023-06-22T13:49:31;35.40;96.50
8338;DHT22;4206;48.634;9.516;2023-06-22T13:51:58;35.10;97.40
8338;DHT22;4206;48.634;9.516;2023-06-22T13:54:25;34.90;96.50
8338;DHT22;4206;48.634;9.516;2023-06-22T13:56:56;35.00;97.80
8338;DHT22;4206;48.634;9.516;2023-06-22T13:59:23;34.60;97.90
8338;DHT22;4206;48.634;9.516;2023-06-22T14:01:50;34.20;98.10
8338;DHT22;4206;48.634;9.516;2023-06-22T14:04:17;33.90;97.50
8338;DHT22;4206;48.634;9.516;2023-06-22T14:06:46;33.80;98.10
8338;DHT22;4206;48.634;9.516;2023-06-22T14:09:15;33.70;98.90
8338;DHT22;4206;48.634;9.516;2023-06-22T14:11:42;33.70;97.80
8338;DHT22;4206;48.634;9.516;2023-06-22T14:14:09;33.80;98.50
8338;DHT22;4206;48.634;9.516;2023-06-22T14:16:36;33.90;98.80
8338;DHT22;4206;48.634;9.516;2023-06-22T14:19:03;33.90;99.10
8338;DHT22;4206;48.634;9.516;2023-06-22T14:21:30;34.00;99.30
8338;DHT22;4206;48.634;9.516;2023-06-22T14:23:57;33.70;98.10
8338;DHT22;4206;48.634;9.516;2023-06-22T14:26:24;33.70;98.60
8338;DHT22;4206;48.634;9.516;2023-06-22T14:28:52;33.60;98.50
8338;DHT22;4206;48.634;9.516;2023-06-22T14:31:20;33.50;98.90
8338;DHT22;4206;48.634;9.516;2023-06-22T14:33:48;33.40;98.60
8338;DHT22;4206;48.634;9.516;2023-06-22T14:36:16;33.30;98.70
8338;DHT22;4206;48.634;9.516;2023-06-22T14:38:44;33.50;97.60
8338;DHT22;4206;48.634;9.516;2023-06-22T14:41:13;33.70;96.30
8338;DHT22;4206;48.634;9.516;2023-06-22T14:43:45;33.60;98.20
8338;DHT22;4206;48.634;9.516;2023-06-22T14:46:18;34.10;98.00
8338;DHT22;4206;48.634;9.516;2023-06-22T14:48:45;34.20;97.50
8338;DHT22;4206;48.634;9.516;2023-06-22T14:51:12;34.30;97.90
8338;DHT22;4206;48.634;9.516;2023-06-22T14:53:44;34.30;97.20
8338;DHT22;4206;48.634;9.516;2023-06-22T14:56:12;34.40;96.60
8338;DHT22;4206;48.634;9.516;2023-06-22T14:58:41;34.20;95.90
8338;DHT22;4206;48.634;9.516;2023-06-22T15:01:13;33.90;94.80
8338;DHT22;4206;48.634;9.516;2023-06-22T15:03:41;33.50;95.10
8338;DHT22;4206;48.634;9.516;2023-06-22T15:06:08;33.60;95.20
8338;DHT22;4206;48.634;9.516;2023-06-22T15:08:38;33.50;95.40
8338;DHT22;4206;48.634;9.516;2023-06-22T15:11:05;33.00;96.00
8338;DHT22;4206;48.634;9.516;2023-06-22T15:13:33;33.00;96.30
8338;DHT22;4206;48.634;9.516;2023-06-22T15:16:02;33.00;95.40
8338;DHT22;4206;48.634;9.516;2023-06-22T15:18:31;33.10;96.20
8338;DHT22;4206;48.634;9.516;2023-06-22T15:21:00;33.30;96.20
8338;DHT22;4206;48.634;9.516;2023-06-22T15:23:29;33.80;96.60
8338;DHT22;4206;48.634;9.516;2023-06-22T15:25:56;34.00;96.40
8338;DHT22;4206;48.634;9.516;2023-06-22T15:28:24;34.20;96.30
8338;DHT22;4206;48.634;9.516;2023-06-22T15:30:51;34.20;96.10
8338;DHT22;4206;48.634;9.516;2023-06-22T15:33:19;34.00;95.70
8338;DHT22;4206;48.634;9.516;2023-06-22T15:35:45;33.70;95.50
8338;DHT22;4206;48.634;9.516;2023-06-22T15:38:12;33.70;96.70
8338;DHT22;4206;48.634;9.516;2023-06-22T15:40:39;33.70;96.90
8338;DHT22;4206;48.634;9.516;2023-06-22T15:43:10;33.70;96.60
8338;DHT22;4206;48.634;9.516;2023-06-22T15:45:37;33.50;97.70
8338;DHT22;4206;48.634;9.516;2023-06-22T15:48:05;33.40;97.60
8338;DHT22;4206;48.634;9.516;2023-06-22T15:50:32;33.50;97.50
8338;DHT22;4206;48.634;9.516;2023-06-22T15:53:00;33.30;97.30
8338;DHT22;4206;48.634;9.516;2023-06-22T15:55:27;32.90;97.70
8338;DHT22;4206;48.634;9.516;2023-06-22T15:57:55;32.90;97.40
8338;DHT22;4206;48.634;9.516;2023-06-22T16:00:22;32.60;98.30
8338;DHT22;4206;48.634;9.516;2023-06-22T16:02:49;32.40;97.90
8338;DHT22;4206;48.634;9.516;2023-06-22T16:05:16;32.10;98.50
8338;DHT22;4206;48.634;9.516;2023-06-22T16:07:43;31.90;98.50
8338;DHT22;4206;48.634;9.516;2023-06-22T16:10:10;31.90;98.70
8338;DHT22;4206;48.634;9.516;2023-06-22T16:12:42;31.50;99.50
8338;DHT22;4206;48.634;9.516;2023-06-22T16:15:10;31.30;97.30
8338;DHT22;4206;48.634;9.516;2023-06-22T16:17:37;31.10;97.00
8338;DHT22;4206;48.634;9.516;2023-06-22T16:20:06;31.00;97.50
8338;DHT22;4206;48.634;9.516;2023-06-22T16:22:34;30.90;95.60